Other Surface Observations
Issued by NWS Missoula, MT

Home | Current Version | Previous Version | Text Only | Print | Product List | Glossary On
Versions: 1 2 3 4 5 6 7 8 9 10 11 12 13 14 15 16 17 18 19 20 21 22 23 24 25 26 27 28 29 30 31 32 33 34 35 36 37 38 39 40 41 42 43 44 45 46 47 48 49 50
000
SXUS55 KMSO 141003
OSOMSO
MONTANA AWOS SUMMARY
NATIONAL WEATHER SERVICE MISSOULA MT
403 AM MDT MON JUL 14 2014

Montana AWOS Reports

LAUREL      |K6S8 140955Z AUTO 00000KT 25SM 17/07 A3025 RMK AO1 T01670072
ROUNDUP     |KRPX 140955Z AUTO 00000KT 40SM 14/06 A3020 RMK AO1 T01440061
SCOBEY      |K9S2 140955Z AUTO 04/01 A3028 RMK AO1 T00440006
EKALAKA     |K97M 140955Z AUTO 00000KT 40SM 10/02 A3024 RMK AO1 T01000022




USA.gov is the U.S. government's official web portal to all federal, state and local government web resources and services.